Skip Navigation Links Skip Navigation Links

Current Weather

Boryspil, Kiev, Ukraine

For information only: do not use for flight planning or navigation.
Latest weather
Observation time Tuesday, October 17, 2017 8:30 AM EEST
Local time Tuesday, October 17, 2017 9:04 AM EEST
Flight conditions Low Instrument Meteorological Conditions
Winds
Wind direction West-Northwest (300°)
Wind speed 9 mph
Visibility 0.6 mi.
Present weather light drizzle, mist, fog
Sky condition
Ceiling 100 ft. indefinite
Cloud layer vertical visibility 100 ft.
Cloud layer overcast 200 ft.
Temperature 52°F
Dewpoint 52°F
Altimeter 30.12 in.Hg
Derived measurements
Relative humidity 100%
Density altitude 26 ft.
METAR UKKK 170530Z 30004MPS 1000 R26/1200N -DZ BR OVC002 11/11 Q1020 R26/190060 TEMPO 0400 FG VV001

Settings

Location code

InnerDrive.Weather 4.0.6144.1 Release CLR 4.0.30319.36366
Copyright ©2015 Inner Drive Technology. All rights reserved. Portions Copyright ©1986-2015 David Braverman.

Find weather

Site navigation


Skip Navigation Links

Place info

Page info

PayPal - The safer, easier way to pay online!

Return home.

Copyright ©2017 Inner Drive Technology. Purveyors of fine, hand-crafted computer software. Page printed 2017-10-17T06:04:54 UTC.